createdAt,value
2023-04-06T00:00:24.913Z,-1.46
2023-04-06T00:01:21.611Z,-1.56
2023-04-06T00:02:18.333Z,-1.42
2023-04-06T00:03:15.600Z,-1.70
2023-04-06T00:04:12.420Z,-1.72
2023-04-06T00:05:09.484Z,-1.74
2023-04-06T00:06:06.551Z,-1.36
2023-04-06T00:07:03.166Z,-1.41
2023-04-06T00:07:59.856Z,-1.22
2023-04-06T00:08:57.105Z,-1.35
2023-04-06T00:09:53.690Z,-1.68
2023-04-06T00:10:50.419Z,-1.27
2023-04-06T00:11:47.061Z,-1.12
2023-04-06T00:12:44.256Z,-1.43
2023-04-06T00:13:40.929Z,-1.55
2023-04-06T00:14:37.533Z,-1.12
2023-04-06T00:15:34.837Z,-1.27
2023-04-06T00:16:31.500Z,-1.28
2023-04-06T00:17:29.079Z,-1.14
2023-04-06T00:18:25.793Z,-1.40
2023-04-06T00:19:22.483Z,-1.70
2023-04-06T00:20:19.823Z,-1.60
2023-04-06T00:21:16.563Z,-2.04
2023-04-06T00:22:13.256Z,-1.63
2023-04-06T00:23:09.872Z,-1.38
2023-04-06T00:24:06.745Z,-1.45
2023-04-06T00:25:03.544Z,-1.54
2023-04-06T00:26:00.427Z,-2.26
2023-04-06T00:26:57.160Z,-1.72
2023-04-06T00:27:53.795Z,-1.94
2023-04-06T00:28:51.682Z,-2.19
2023-04-06T00:29:48.310Z,-1.63
2023-04-06T00:30:44.961Z,-1.65
2023-04-06T00:31:41.696Z,-1.87
2023-04-06T00:32:38.538Z,-1.35
2023-04-06T00:33:35.152Z,-1.79
2023-04-06T00:34:31.849Z,-1.21
2023-04-06T00:35:28.433Z,-1.93
2023-04-06T00:36:25.096Z,-1.59
2023-04-06T00:37:21.722Z,-1.36
2023-04-06T00:38:18.872Z,-1.47
2023-04-06T00:39:15.473Z,-1.57
2023-04-06T00:40:12.147Z,-1.58
2023-04-06T00:41:08.851Z,-1.55
2023-04-06T00:42:13.534Z,-1.44
2023-04-06T00:43:10.438Z,-1.41
2023-04-06T00:44:07.182Z,-1.47
2023-04-06T00:45:04.212Z,-1.68
2023-04-06T00:46:00.972Z,-1.73
2023-04-06T00:46:57.702Z,-1.38
2023-04-06T00:47:54.464Z,-1.55
2023-04-06T00:48:51.371Z,-1.72
2023-04-06T00:49:48.266Z,-1.53
2023-04-06T00:50:44.996Z,-1.27
2023-04-06T00:51:41.634Z,-1.60
2023-04-06T00:52:38.542Z,-1.40
2023-04-06T00:53:35.288Z,-1.61
2023-04-06T00:54:31.946Z,-2.11
2023-04-06T00:55:29.629Z,-1.43
2023-04-06T00:56:27.277Z,-1.33
2023-04-06T00:57:24.014Z,-1.69
2023-04-06T00:58:20.672Z,-1.41
2023-04-06T00:59:17.529Z,-1.41
2023-04-06T01:00:14.956Z,-1.44
2023-04-06T01:01:11.830Z,-1.39
2023-04-06T01:02:09.369Z,-1.29
2023-04-06T01:03:07.882Z,-1.50
2023-04-06T01:04:04.786Z,-1.56
2023-04-06T01:05:01.502Z,-1.24
2023-04-06T01:05:59.373Z,-1.52
2023-04-06T01:06:56.205Z,-1.68
2023-04-06T01:07:52.880Z,-1.37
2023-04-06T01:08:49.598Z,-1.53
2023-04-06T01:09:46.266Z,-1.63
2023-04-06T01:10:42.880Z,-1.38
2023-04-06T01:11:39.556Z,-1.37
2023-04-06T01:12:37.348Z,-1.21
2023-04-06T01:13:34.059Z,-1.28
2023-04-06T01:14:30.964Z,-1.07
2023-04-06T01:15:28.338Z,-1.17
2023-04-06T01:16:25.482Z,-1.54
2023-04-06T01:17:22.849Z,-1.40
2023-04-06T01:18:19.490Z,-1.39
2023-04-06T01:19:16.195Z,-1.58
2023-04-06T01:20:12.867Z,-2.09
2023-04-06T01:21:11.276Z,-1.56
2023-04-06T01:22:08.306Z,-1.52
2023-04-06T01:23:04.937Z,-1.45
2023-04-06T01:24:01.562Z,-1.31
2023-04-06T01:24:58.294Z,-1.32
2023-04-06T01:25:54.927Z,-1.38
2023-04-06T01:26:51.571Z,-1.24
2023-04-06T01:27:48.247Z,-1.50
2023-04-06T01:28:45.714Z,-1.40
2023-04-06T01:29:42.576Z,-1.38
2023-04-06T01:30:39.217Z,-1.29
2023-04-06T01:31:36.387Z,-1.40
2023-04-06T01:32:33.029Z,-1.44
2023-04-06T01:33:29.683Z,-1.33
2023-04-06T01:34:26.380Z,-1.26
2023-04-06T01:35:23.476Z,-1.25
2023-04-06T01:36:20.746Z,-1.55
2023-04-06T01:37:17.469Z,-1.26
2023-04-06T01:38:14.146Z,-1.43
2023-04-06T01:39:10.935Z,-1.57
2023-04-06T01:40:08.292Z,-1.91
2023-04-06T01:41:04.956Z,-1.80
2023-04-06T01:42:01.575Z,-1.75
2023-04-06T01:42:58.198Z,-1.73
2023-04-06T01:43:55.683Z,-1.67
2023-04-06T01:44:52.393Z,-1.78
2023-04-06T01:45:48.983Z,-1.57
2023-04-06T01:46:46.505Z,-1.65
2023-04-06T01:47:43.222Z,-1.63
2023-04-06T01:48:39.876Z,-1.70
2023-04-06T01:49:36.820Z,-1.72
2023-04-06T01:50:33.457Z,-1.64
2023-04-06T01:51:30.115Z,-1.51
2023-04-06T01:52:26.733Z,-1.54
2023-04-06T01:53:23.434Z,-1.56
2023-04-06T01:54:20.034Z,-1.72
2023-04-06T01:55:16.945Z,-1.64
2023-04-06T01:56:13.614Z,-1.77
2023-04-06T01:57:11.869Z,-2.10
2023-04-06T01:58:08.494Z,-1.63
2023-04-06T01:59:05.358Z,-1.71
2023-04-06T02:00:02.104Z,-1.72
2023-04-06T02:00:58.756Z,-1.71
2023-04-06T02:01:55.443Z,-1.51
2023-04-06T02:02:52.255Z,-1.64
2023-04-06T02:03:49.057Z,-1.54
2023-04-06T02:04:45.902Z,-1.63
2023-04-06T02:05:42.591Z,-1.76
2023-04-06T02:06:39.232Z,-1.70
2023-04-06T02:07:35.923Z,-1.54
2023-04-06T02:08:32.554Z,-1.67
2023-04-06T02:09:30.633Z,-1.61
2023-04-06T02:10:27.400Z,-1.63
2023-04-06T02:11:24.028Z,-1.58
2023-04-06T02:12:20.873Z,-1.68
2023-04-06T02:13:17.597Z,-1.62
2023-04-06T02:14:14.196Z,-1.58
2023-04-06T02:15:11.245Z,-1.49
2023-04-06T02:16:08.029Z,-1.56
2023-04-06T02:17:04.741Z,-1.69
2023-04-06T02:18:01.811Z,-1.86
2023-04-06T02:18:58.490Z,-1.59
2023-04-06T02:19:55.059Z,-1.62
2023-04-06T02:20:52.047Z,-1.48
2023-04-06T02:21:48.597Z,-1.96
2023-04-06T02:22:45.644Z,-1.64
2023-04-06T02:23:42.258Z,-1.60
2023-04-06T02:24:38.888Z,-1.58
2023-04-06T02:25:35.894Z,-2.04
2023-04-06T02:26:33.684Z,-1.67
2023-04-06T02:27:30.284Z,-1.61
2023-04-06T02:28:26.915Z,-1.53
2023-04-06T02:29:23.526Z,-1.48
2023-04-06T02:30:20.393Z,-1.42
2023-04-06T02:31:17.167Z,-1.63
2023-04-06T02:32:13.742Z,-1.54
2023-04-06T02:33:10.391Z,-1.51
2023-04-06T02:34:08.203Z,-1.51
2023-04-06T02:35:05.140Z,-1.52
2023-04-06T02:36:01.841Z,-1.39
2023-04-06T02:36:58.534Z,-1.47
2023-04-06T02:37:55.383Z,-1.40
2023-04-06T02:38:52.814Z,-1.44
2023-04-06T02:39:49.406Z,-1.72
2023-04-06T02:40:46.099Z,-1.63
2023-04-06T02:41:42.697Z,-1.68
2023-04-06T02:42:39.360Z,-1.81
2023-04-06T02:43:36.083Z,-1.75
2023-04-06T02:44:32.712Z,-1.68
2023-04-06T02:45:29.366Z,-2.00
2023-04-06T02:46:26.613Z,-1.85
2023-04-06T02:47:23.286Z,-1.62
2023-04-06T02:48:19.958Z,-1.37
2023-04-06T02:49:16.805Z,-1.30
2023-04-06T02:50:13.493Z,-1.38
2023-04-06T02:51:10.285Z,-1.28
2023-04-06T02:52:06.914Z,-1.43
2023-04-06T02:53:03.530Z,-1.53
2023-04-06T02:54:00.508Z,-1.73
2023-04-06T02:54:57.118Z,-1.64
2023-04-06T02:55:53.673Z,-1.63
2023-04-06T02:56:50.437Z,-1.67
2023-04-06T02:57:47.067Z,-1.47
2023-04-06T02:58:43.807Z,-1.40
2023-04-06T02:59:40.558Z,-1.41
2023-04-06T03:00:38.675Z,-1.65
2023-04-06T03:01:35.482Z,-1.67
2023-04-06T03:02:32.254Z,-1.78
2023-04-06T03:03:29.062Z,-1.65
2023-04-06T03:04:26.588Z,-1.62
2023-04-06T03:05:23.161Z,-1.69
2023-04-06T03:06:19.780Z,-1.82
2023-04-06T03:07:16.521Z,-1.60
2023-04-06T03:08:13.114Z,-1.50
2023-04-06T03:09:10.007Z,-1.61
2023-04-06T03:10:07.105Z,-2.00
2023-04-06T03:11:03.812Z,-1.65
2023-04-06T03:12:01.008Z,-1.78
2023-04-06T03:12:57.630Z,-1.73
2023-04-06T03:13:54.287Z,-1.67
2023-04-06T03:14:50.968Z,-1.76
2023-04-06T03:15:47.636Z,-1.69
2023-04-06T03:16:44.728Z,-1.56
2023-04-06T03:17:41.422Z,-1.61
2023-04-06T03:18:38.790Z,-1.58
2023-04-06T03:19:35.477Z,-1.57
2023-04-06T03:20:32.050Z,-2.49
2023-04-06T03:21:31.641Z,-1.57
2023-04-06T03:22:29.725Z,-1.72
2023-04-06T03:23:26.392Z,-1.49
2023-04-06T03:24:23.064Z,-1.46
2023-04-06T03:25:19.661Z,-1.58
2023-04-06T03:26:16.233Z,-1.55
2023-04-06T03:27:13.019Z,-1.61
2023-04-06T03:28:09.698Z,-1.41
2023-04-06T03:29:06.528Z,-1.56
2023-04-06T03:30:03.763Z,-1.39
2023-04-06T03:31:00.716Z,-1.77
2023-04-06T03:31:57.425Z,-1.55
2023-04-06T03:32:54.140Z,-1.49
2023-04-06T03:33:50.875Z,-1.49
2023-04-06T03:34:47.415Z,-1.51
2023-04-06T03:35:44.104Z,-1.60
2023-04-06T03:36:40.824Z,-1.60
2023-04-06T03:37:37.490Z,-1.39
2023-04-06T03:38:34.091Z,-1.44
2023-04-06T03:39:31.103Z,-1.41
2023-04-06T03:40:27.741Z,-1.41
2023-04-06T03:41:24.352Z,-1.37
2023-04-06T03:42:21.000Z,-1.50
2023-04-06T03:43:17.641Z,-1.34
2023-04-06T03:44:14.263Z,-1.85
2023-04-06T03:45:11.254Z,-1.42
2023-04-06T03:46:07.927Z,-1.29
2023-04-06T03:47:04.769Z,-1.24
2023-04-06T03:48:01.466Z,-1.43
2023-04-06T03:48:58.440Z,-1.41
2023-04-06T03:49:55.207Z,-1.47
2023-04-06T03:50:51.787Z,-1.90
2023-04-06T03:51:48.638Z,-1.89
2023-04-06T03:52:45.300Z,-1.39
2023-04-06T03:53:41.864Z,-1.38
2023-04-06T03:54:38.619Z,-1.38
2023-04-06T03:55:35.423Z,-1.38
2023-04-06T03:56:32.174Z,-1.19
2023-04-06T03:57:28.773Z,-1.28
2023-04-06T03:58:25.365Z,-1.72
2023-04-06T03:59:22.157Z,-1.40
2023-04-06T04:00:18.973Z,-1.53
2023-04-06T04:01:16.081Z,-1.47
2023-04-06T04:02:12.798Z,-1.37
2023-04-06T04:03:09.516Z,-1.34
2023-04-06T04:04:06.452Z,-1.58
2023-04-06T04:05:03.501Z,-1.81
2023-04-06T04:06:00.315Z,-1.33
2023-04-06T04:06:56.930Z,-1.53
2023-04-06T04:07:53.717Z,-1.61
2023-04-06T04:08:50.738Z,-1.50
2023-04-06T04:09:47.347Z,-1.47
2023-04-06T04:10:43.945Z,-1.58
2023-04-06T04:11:40.850Z,-1.65
2023-04-06T04:12:37.536Z,-1.71
2023-04-06T04:13:34.156Z,-1.45
2023-04-06T04:14:30.889Z,-1.51
2023-04-06T04:15:27.689Z,-1.35
2023-04-06T04:16:24.409Z,-1.38
2023-04-06T04:17:22.933Z,-1.61
2023-04-06T04:18:19.999Z,-1.63
2023-04-06T04:19:16.650Z,-1.69
2023-04-06T04:20:14.344Z,-2.04
2023-04-06T04:21:11.127Z,-1.71
2023-04-06T04:22:07.793Z,-1.62
2023-04-06T04:23:04.456Z,-1.60
2023-04-06T04:24:01.155Z,-1.49
2023-04-06T04:24:57.739Z,-1.43
2023-04-06T04:25:54.397Z,-1.30
2023-04-06T04:26:51.076Z,-1.65
2023-04-06T04:27:47.670Z,-1.58
2023-04-06T04:28:44.322Z,-1.67
2023-04-06T04:29:41.121Z,-1.51
2023-04-06T04:30:37.742Z,-1.43
2023-04-06T04:31:34.422Z,-1.73
2023-04-06T04:32:31.553Z,-1.52
2023-04-06T04:33:28.253Z,-1.60
2023-04-06T04:34:26.250Z,-1.26
2023-04-06T04:35:22.928Z,-1.24
2023-04-06T04:36:19.646Z,-1.44
2023-04-06T04:37:16.306Z,-1.47
2023-04-06T04:38:12.904Z,-1.45
2023-04-06T04:39:09.809Z,-1.75
2023-04-06T04:40:07.412Z,-1.59
2023-04-06T04:41:03.990Z,-1.45
2023-04-06T04:42:00.755Z,-1.77
2023-04-06T04:42:57.386Z,-2.44
2023-04-06T04:43:53.973Z,-1.71
2023-04-06T04:44:50.618Z,-1.62
2023-04-06T04:45:47.285Z,-2.13
2023-04-06T04:46:43.941Z,-1.64
2023-04-06T04:47:40.719Z,-1.54
2023-04-06T04:48:37.573Z,-2.37
2023-04-06T04:49:34.190Z,-1.65
2023-04-06T04:50:30.897Z,-1.36
2023-04-06T04:51:29.569Z,-1.29
2023-04-06T04:52:26.259Z,-1.34
2023-04-06T04:53:25.077Z,-1.54
2023-04-06T04:54:22.007Z,-1.60
2023-04-06T04:55:18.892Z,-1.31
2023-04-06T04:56:15.920Z,-1.29
2023-04-06T04:57:12.530Z,-1.35
2023-04-06T04:58:12.119Z,-1.34
2023-04-06T04:59:08.916Z,-1.37
2023-04-06T05:00:06.788Z,-1.37
2023-04-06T05:01:03.463Z,-1.16
2023-04-06T05:02:00.335Z,-1.17
2023-04-06T05:02:57.127Z,-1.16
2023-04-06T05:03:53.952Z,-1.28
2023-04-06T05:04:50.685Z,-1.33
2023-04-06T05:05:47.285Z,-1.13
2023-04-06T05:06:43.945Z,-1.24
2023-04-06T05:07:40.652Z,-0.93
2023-04-06T05:08:37.243Z,-1.15
2023-04-06T05:09:33.937Z,-1.40
2023-04-06T05:10:30.570Z,-1.64
2023-04-06T05:11:27.474Z,-1.40
2023-04-06T05:12:24.118Z,-1.22
2023-04-06T05:13:21.286Z,-1.03
2023-04-06T05:14:18.375Z,-1.12
2023-04-06T05:15:15.202Z,-1.17
2023-04-06T05:16:12.218Z,-1.14
2023-04-06T05:17:09.353Z,-1.03
2023-04-06T05:18:07.052Z,-1.03
2023-04-06T05:19:03.794Z,-1.18
2023-04-06T05:20:00.508Z,-1.09
2023-04-06T05:20:57.144Z,-1.21
2023-04-06T05:21:53.924Z,-1.00
2023-04-06T05:22:50.562Z,-1.28
2023-04-06T05:23:47.174Z,-1.11
2023-04-06T05:24:44.232Z,-1.01
2023-04-06T05:25:41.742Z,-0.95
2023-04-06T05:26:38.492Z,-1.19
2023-04-06T05:27:35.674Z,-0.96
2023-04-06T05:28:33.045Z,-0.89
2023-04-06T05:29:30.645Z,-0.84
2023-04-06T05:30:27.306Z,-0.71
2023-04-06T05:31:23.949Z,-1.13
2023-04-06T05:32:23.154Z,-1.12
2023-04-06T05:33:20.030Z,-1.28
2023-04-06T05:34:16.857Z,-1.03
2023-04-06T05:35:13.618Z,-1.13
2023-04-06T05:36:11.635Z,-1.02
2023-04-06T05:37:09.697Z,-0.85
2023-04-06T05:38:10.665Z,-0.95
2023-04-06T05:39:08.243Z,-1.28
2023-04-06T05:40:05.704Z,-0.91
2023-04-06T05:41:02.302Z,-1.08
2023-04-06T05:41:58.845Z,-0.80
2023-04-06T05:42:55.435Z,-0.70
2023-04-06T05:43:52.050Z,-0.88
2023-04-06T05:44:48.686Z,-0.95
2023-04-06T05:45:46.757Z,-0.88
2023-04-06T05:46:43.346Z,-0.66
2023-04-06T05:47:40.057Z,-0.70
2023-04-06T05:48:37.021Z,-0.65
2023-04-06T05:49:33.920Z,-0.77
2023-04-06T05:50:30.580Z,-0.53
2023-04-06T05:51:28.298Z,-0.39
2023-04-06T05:52:25.241Z,-0.77
2023-04-06T05:53:27.339Z,-0.83
2023-04-06T05:54:24.138Z,-0.72
2023-04-06T05:55:20.804Z,-0.74
2023-04-06T05:56:17.706Z,-1.44
2023-04-06T05:57:14.340Z,-0.74
2023-04-06T05:58:11.205Z,-0.70
2023-04-06T05:59:08.421Z,-0.62
2023-04-06T06:00:07.823Z,-0.39
2023-04-06T06:01:05.793Z,-0.67
2023-04-06T06:02:02.613Z,-0.66
2023-04-06T06:02:59.325Z,-0.49
2023-04-06T06:03:56.001Z,-0.34
2023-04-06T06:04:52.752Z,-0.42
2023-04-06T06:05:49.444Z,-0.24
2023-04-06T06:06:46.108Z,-0.44
2023-04-06T06:07:42.777Z,-0.35
2023-04-06T06:08:39.450Z,-0.26
2023-04-06T06:09:36.147Z,-0.18
2023-04-06T06:10:32.819Z,-0.54
2023-04-06T06:11:29.456Z,-0.08
2023-04-06T06:12:26.132Z,-0.43
2023-04-06T06:13:23.555Z,-0.37
2023-04-06T06:14:21.048Z,-0.22
2023-04-06T06:15:17.779Z,-0.13
2023-04-06T06:16:14.410Z,-0.17
2023-04-06T06:17:11.125Z,-0.21
2023-04-06T06:18:07.826Z,-0.26
2023-04-06T06:19:04.564Z,-0.17
2023-04-06T06:20:01.260Z,0.02
2023-04-06T06:20:57.877Z,-0.03
2023-04-06T06:21:54.538Z,0.05
2023-04-06T06:22:51.216Z,0.34
2023-04-06T06:23:49.556Z,0.21
2023-04-06T06:24:46.259Z,0.42
2023-04-06T06:25:42.823Z,0.20
2023-04-06T06:26:40.511Z,0.22
2023-04-06T06:27:37.595Z,0.11
2023-04-06T06:28:34.358Z,0.32
2023-04-06T06:29:31.089Z,-0.23
2023-04-06T06:30:28.926Z,0.02
2023-04-06T06:31:25.765Z,0.48
2023-04-06T06:32:22.569Z,0.45
2023-04-06T06:33:19.353Z,0.35
2023-04-06T06:34:16.014Z,0.51
2023-04-06T06:35:12.626Z,0.33
2023-04-06T06:36:09.408Z,0.75
2023-04-06T06:37:07.156Z,0.46
2023-04-06T06:38:03.831Z,0.62
2023-04-06T06:39:01.670Z,0.94
2023-04-06T06:39:58.249Z,0.47
2023-04-06T06:40:54.917Z,0.75
2023-04-06T06:41:51.579Z,0.30
2023-04-06T06:42:48.213Z,0.30
2023-04-06T06:43:44.904Z,0.51
2023-04-06T06:44:41.559Z,0.86
2023-04-06T06:45:38.357Z,0.84
2023-04-06T06:46:34.996Z,0.93
2023-04-06T06:48:28.355Z,0.48
2023-04-06T06:49:25.002Z,0.15
2023-04-06T06:50:21.764Z,0.45
2023-04-06T06:51:18.440Z,0.32
2023-04-06T06:52:15.650Z,0.72
2023-04-06T06:53:12.782Z,1.02
2023-04-06T06:54:09.694Z,1.16
2023-04-06T06:55:06.823Z,0.92
2023-04-06T06:56:03.754Z,1.22
2023-04-06T06:57:01.426Z,0.78
2023-04-06T06:57:58.099Z,0.53
2023-04-06T06:58:54.773Z,0.54
2023-04-06T06:59:51.450Z,0.89
2023-04-06T07:00:48.134Z,0.87
2023-04-06T07:01:44.815Z,0.55
2023-04-06T07:02:41.742Z,0.62
2023-04-06T07:03:38.350Z,0.61
2023-04-06T07:04:35.091Z,0.32
2023-04-06T07:05:31.836Z,0.74
2023-04-06T07:06:28.513Z,0.62
2023-04-06T07:07:25.156Z,0.78
2023-04-06T07:08:23.074Z,0.63
2023-04-06T07:09:20.156Z,0.66
2023-04-06T07:10:16.863Z,0.55
2023-04-06T07:11:13.534Z,0.64
2023-04-06T07:12:10.340Z,0.29
2023-04-06T07:13:07.227Z,0.56
2023-04-06T07:14:03.912Z,0.18
2023-04-06T07:15:00.638Z,-0.10
2023-04-06T07:15:57.251Z,0.07
2023-04-06T07:16:53.931Z,-0.08
2023-04-06T07:17:50.795Z,0.11
2023-04-06T07:18:47.617Z,0.17
2023-04-06T07:19:44.413Z,0.09
2023-04-06T07:20:41.343Z,0.31
2023-04-06T07:21:38.085Z,0.05
2023-04-06T07:22:34.785Z,0.15
2023-04-06T07:23:31.388Z,0.24
2023-04-06T07:24:28.034Z,0.19
2023-04-06T07:25:26.068Z,0.65
2023-04-06T07:26:22.772Z,0.70
2023-04-06T07:27:19.921Z,0.83
2023-04-06T07:28:16.583Z,0.51
2023-04-06T07:29:13.803Z,0.50
2023-04-06T07:30:10.919Z,0.42
2023-04-06T07:31:07.631Z,0.03
2023-04-06T07:32:04.346Z,0.08
2023-04-06T07:33:01.452Z,0.04
2023-04-06T07:33:58.223Z,-0.02
2023-04-06T07:34:54.834Z,0.03
2023-04-06T07:35:52.567Z,0.04
2023-04-06T07:36:49.292Z,-0.24
2023-04-06T07:37:45.923Z,0.24
2023-04-06T07:38:42.578Z,-0.19
2023-04-06T07:39:39.241Z,-0.12
2023-04-06T07:40:35.945Z,-0.23
2023-04-06T07:41:32.650Z,0.09
2023-04-06T07:42:29.319Z,-0.05
2023-04-06T07:43:26.237Z,-0.31
2023-04-06T07:44:22.925Z,-0.09
2023-04-06T07:45:19.873Z,-0.07
2023-04-06T07:46:16.652Z,0.28
2023-04-06T07:47:13.349Z,0.28
2023-04-06T07:48:11.002Z,0.72
2023-04-06T07:49:07.660Z,0.93
2023-04-06T07:50:04.755Z,0.41
2023-04-06T07:51:03.198Z,0.13
2023-04-06T07:51:59.810Z,0.19
2023-04-06T07:52:56.429Z,0.25
2023-04-06T07:53:53.217Z,0.45
2023-04-06T07:54:50.557Z,0.48
2023-04-06T07:55:47.378Z,0.35
2023-04-06T07:56:44.080Z,0.40
2023-04-06T07:57:40.789Z,-0.14
2023-04-06T07:58:37.394Z,0.37
2023-04-06T07:59:34.123Z,0.14
2023-04-06T08:00:31.450Z,0.31
2023-04-06T08:01:29.223Z,0.13
2023-04-06T08:02:26.012Z,0.21
2023-04-06T08:03:28.654Z,0.38
2023-04-06T08:04:25.606Z,0.35
2023-04-06T08:05:22.368Z,0.08
2023-04-06T08:06:18.985Z,0.45
2023-04-06T08:07:15.621Z,0.40
2023-04-06T08:08:12.274Z,0.64
2023-04-06T08:09:09.066Z,0.21
2023-04-06T08:10:06.078Z,0.58
2023-04-06T08:11:03.758Z,0.36
2023-04-06T08:12:00.398Z,0.57
2023-04-06T08:12:57.025Z,0.74
2023-04-06T08:13:53.786Z,0.55
2023-04-06T08:14:50.504Z,0.36
2023-04-06T08:15:47.232Z,0.40
2023-04-06T08:16:44.011Z,0.92
2023-04-06T08:17:40.843Z,0.64
2023-04-06T08:18:37.575Z,0.30
2023-04-06T08:19:34.269Z,0.41
2023-04-06T08:20:30.930Z,0.49
2023-04-06T08:21:28.565Z,0.55
2023-04-06T08:22:25.216Z,0.54
2023-04-06T08:23:22.031Z,0.61
2023-04-06T08:24:18.693Z,0.61
2023-04-06T08:25:15.499Z,0.43
2023-04-06T08:26:12.193Z,0.53
2023-04-06T08:27:08.874Z,0.31
2023-04-06T08:28:05.804Z,0.56
2023-04-06T08:29:02.446Z,0.52
2023-04-06T08:29:59.185Z,0.54
2023-04-06T08:30:55.913Z,0.53
2023-04-06T08:31:52.502Z,0.44
2023-04-06T08:32:49.169Z,0.67
2023-04-06T08:33:45.986Z,0.58
2023-04-06T08:34:42.653Z,0.86
2023-04-06T08:35:39.327Z,0.60
2023-04-06T08:36:36.043Z,0.58
2023-04-06T08:37:32.741Z,0.76
2023-04-06T08:38:29.356Z,0.86
2023-04-06T08:39:28.186Z,0.87
2023-04-06T08:40:25.297Z,0.15
2023-04-06T08:41:22.349Z,0.90
2023-04-06T08:42:23.018Z,1.08
2023-04-06T08:43:23.548Z,1.06
2023-04-06T08:44:20.530Z,0.70
2023-04-06T08:45:18.849Z,1.22
2023-04-06T08:46:16.280Z,1.29
2023-04-06T08:47:13.798Z,0.39
2023-04-06T08:48:10.734Z,1.03
2023-04-06T08:49:08.948Z,1.02
2023-04-06T08:50:06.232Z,1.16
2023-04-06T08:51:03.613Z,1.32
2023-04-06T08:52:01.549Z,1.22
2023-04-06T08:52:58.190Z,1.44
2023-04-06T08:53:56.391Z,1.09
2023-04-06T08:54:53.022Z,0.99
2023-04-06T08:55:49.864Z,0.93
2023-04-06T08:56:47.660Z,1.26
2023-04-06T08:57:45.330Z,1.37
2023-04-06T08:58:42.746Z,1.24
2023-04-06T08:59:40.537Z,1.00
2023-04-06T09:00:40.561Z,1.29
2023-04-06T09:01:42.418Z,1.25
2023-04-06T09:02:46.405Z,1.27
2023-04-06T09:03:44.675Z,1.34
2023-04-06T09:04:41.848Z,1.30
2023-04-06T09:05:39.765Z,1.23
2023-04-06T09:06:37.947Z,1.33
2023-04-06T09:07:34.632Z,1.24
2023-04-06T09:08:31.480Z,1.54
2023-04-06T09:09:28.193Z,1.46
2023-04-06T09:10:28.267Z,1.12
2023-04-06T09:11:25.046Z,1.34
2023-04-06T09:12:29.002Z,1.77
2023-04-06T09:13:25.808Z,1.67
2023-04-06T09:14:38.991Z,1.91
2023-04-06T09:15:36.295Z,1.50
2023-04-06T09:16:41.522Z,1.53
2023-04-06T09:17:38.200Z,1.65
2023-04-06T09:18:35.249Z,1.52
2023-04-06T09:19:32.106Z,1.46
2023-04-06T09:20:31.502Z,1.69
2023-04-06T09:21:28.387Z,1.85
2023-04-06T09:22:29.384Z,1.76
2023-04-06T09:23:26.082Z,1.85
2023-04-06T09:24:27.224Z,1.57
2023-04-06T09:25:26.612Z,1.67
2023-04-06T09:26:23.854Z,1.77
2023-04-06T09:27:33.302Z,1.77
2023-04-06T09:28:30.084Z,1.55
2023-04-06T09:29:28.106Z,1.61
2023-04-06T09:30:26.017Z,1.49
2023-04-06T09:31:28.494Z,1.43
2023-04-06T09:32:25.065Z,1.46
2023-04-06T09:33:24.804Z,1.64
2023-04-06T09:34:23.871Z,1.65
2023-04-06T09:35:21.658Z,1.33
2023-04-06T09:36:18.564Z,1.52
2023-04-06T09:37:19.750Z,1.66
2023-04-06T09:38:16.468Z,1.77
2023-04-06T09:39:14.098Z,1.60
2023-04-06T09:40:11.246Z,1.83
2023-04-06T09:41:07.969Z,1.75
2023-04-06T09:42:04.609Z,2.01
2023-04-06T09:43:03.389Z,1.75
2023-04-06T09:44:11.026Z,1.59
2023-04-06T09:45:08.588Z,1.65
2023-04-06T09:46:05.697Z,1.78
2023-04-06T09:47:06.313Z,1.70
2023-04-06T09:48:04.934Z,1.23
2023-04-06T09:49:03.527Z,1.74
2023-04-06T09:50:01.398Z,1.79
2023-04-06T09:51:04.106Z,2.11
2023-04-06T09:52:03.285Z,2.21
2023-04-06T09:53:01.023Z,1.53
2023-04-06T09:54:02.384Z,1.99
2023-04-06T09:55:03.055Z,2.02
2023-04-06T09:56:03.931Z,1.87
2023-04-06T09:57:27.438Z,2.19
2023-04-06T09:58:27.445Z,1.47
2023-04-06T09:59:24.161Z,1.64
2023-04-06T10:00:23.485Z,2.00
2023-04-06T10:01:21.804Z,1.88
2023-04-06T10:02:49.195Z,1.92
2023-04-06T10:04:22.505Z,2.08
2023-04-06T10:05:31.275Z,1.95
2023-04-06T10:06:34.341Z,2.31
2023-04-06T10:07:32.389Z,1.90
2023-04-06T10:08:32.480Z,1.60
2023-04-06T10:09:36.656Z,1.69
2023-04-06T10:10:33.627Z,1.81
2023-04-06T10:11:30.665Z,1.55
2023-04-06T10:12:27.355Z,1.88
2023-04-06T10:13:25.946Z,1.75
2023-04-06T10:14:22.673Z,1.99
2023-04-06T10:15:21.913Z,2.40
2023-04-06T10:16:19.760Z,2.24
2023-04-06T10:17:16.504Z,2.30
2023-04-06T10:18:13.449Z,2.28
2023-04-06T10:19:26.004Z,2.08
2023-04-06T10:20:28.788Z,2.36
2023-04-06T10:21:28.527Z,2.63
2023-04-06T10:22:37.643Z,2.55
2023-04-06T10:23:38.027Z,2.39
2023-04-06T10:24:34.704Z,2.42
2023-04-06T10:25:32.936Z,2.41
2023-04-06T10:26:29.702Z,2.30
2023-04-06T10:27:30.736Z,2.69
2023-04-06T10:28:32.842Z,2.73
2023-04-06T10:29:29.742Z,2.79
2023-04-06T10:30:27.161Z,2.80
2023-04-06T10:31:28.737Z,2.89
2023-04-06T10:32:37.279Z,3.58
2023-04-06T10:33:34.348Z,3.57
2023-04-06T10:34:36.300Z,3.03
2023-04-06T10:35:41.734Z,2.93
2023-04-06T10:36:38.908Z,2.47
2023-04-06T10:38:01.465Z,2.49
2023-04-06T10:39:03.658Z,2.80
2023-04-06T10:40:00.365Z,2.92
2023-04-06T10:41:08.225Z,2.22
2023-04-06T10:42:07.878Z,1.84
2023-04-06T10:43:12.782Z,1.96
2023-04-06T10:44:18.845Z,2.28
2023-04-06T10:45:28.855Z,2.65
2023-04-06T10:46:31.542Z,2.82
2023-04-06T10:47:28.286Z,3.11
2023-04-06T10:48:25.368Z,3.33
2023-04-06T10:49:22.291Z,2.17
2023-04-06T10:50:19.198Z,2.67
2023-04-06T10:51:17.897Z,3.31
2023-04-06T10:52:14.650Z,3.50
2023-04-06T10:53:11.378Z,3.97
2023-04-06T10:54:08.806Z,3.21
2023-04-06T10:55:07.112Z,2.79
2023-04-06T10:56:05.125Z,3.18
2023-04-06T10:57:02.065Z,3.06
2023-04-06T10:57:58.702Z,2.99
2023-04-06T10:58:58.936Z,3.30
2023-04-06T10:59:55.680Z,3.68
2023-04-06T11:00:52.764Z,3.46
2023-04-06T11:01:49.926Z,3.26
2023-04-06T11:02:47.313Z,3.45
2023-04-06T11:03:48.809Z,3.37
2023-04-06T11:04:55.303Z,2.96
2023-04-06T11:05:52.615Z,3.32
2023-04-06T11:06:50.458Z,2.97
2023-04-06T11:07:47.143Z,3.28
2023-04-06T11:08:43.891Z,3.83
2023-04-06T11:09:40.678Z,4.50
2023-04-06T11:10:37.377Z,3.56
2023-04-06T11:11:34.049Z,3.31
2023-04-06T11:12:31.943Z,3.84
2023-04-06T11:13:41.936Z,3.95
2023-04-06T11:14:39.880Z,3.93
2023-04-06T11:15:38.222Z,4.13
2023-04-06T11:16:36.237Z,4.46
2023-04-06T11:17:35.003Z,5.23
2023-04-06T11:18:32.762Z,5.81
2023-04-06T11:19:29.551Z,6.08
2023-04-06T11:20:26.290Z,5.53
2023-04-06T11:21:47.717Z,5.88
2023-04-06T11:22:52.770Z,5.94
2023-04-06T11:23:49.387Z,5.97
2023-04-06T11:24:46.161Z,5.93
2023-04-06T11:25:52.129Z,4.96
2023-04-06T11:26:50.044Z,5.34
2023-04-06T11:27:48.619Z,5.10
2023-04-06T11:28:45.503Z,4.74
2023-04-06T11:29:42.255Z,4.79
2023-04-06T11:30:39.297Z,4.28
2023-04-06T11:31:43.816Z,4.45
2023-04-06T11:32:45.271Z,4.93
2023-04-06T11:33:42.056Z,4.47
2023-04-06T11:34:40.645Z,4.99
2023-04-06T11:35:38.477Z,4.76
2023-04-06T11:36:36.928Z,4.30
2023-04-06T11:37:34.038Z,4.53
2023-04-06T11:38:31.894Z,4.56
2023-04-06T11:39:29.918Z,4.54
2023-04-06T11:40:28.966Z,4.14
2023-04-06T11:41:27.650Z,4.15
2023-04-06T11:42:29.254Z,4.28
2023-04-06T11:43:30.393Z,4.90
2023-04-06T11:44:41.271Z,4.82
2023-04-06T11:45:44.078Z,4.93
2023-04-06T11:46:41.007Z,5.23
2023-04-06T11:47:43.198Z,5.64
2023-04-06T11:48:46.465Z,5.12
2023-04-06T11:49:43.934Z,5.45
2023-04-06T11:50:40.770Z,4.95
2023-04-06T11:51:38.350Z,4.93
2023-04-06T11:52:35.248Z,5.69
2023-04-06T11:53:32.053Z,5.40
2023-04-06T11:54:36.262Z,5.12
2023-04-06T11:55:39.177Z,4.29
2023-04-06T11:56:35.892Z,4.59
2023-04-06T11:57:32.560Z,4.32
2023-04-06T11:58:30.886Z,4.78
2023-04-06T11:59:28.299Z,5.11
2023-04-06T12:00:25.041Z,5.09
2023-04-06T12:01:21.660Z,4.64
2023-04-06T12:02:19.049Z,4.26
2023-04-06T12:03:16.038Z,4.69
2023-04-06T12:04:13.024Z,4.97
2023-04-06T12:05:10.435Z,4.71
2023-04-06T12:06:07.136Z,4.60
2023-04-06T12:07:04.065Z,4.81
2023-04-06T12:08:02.710Z,4.88
2023-04-06T12:09:00.360Z,4.81
2023-04-06T12:09:57.212Z,4.70
2023-04-06T12:10:53.878Z,5.13
2023-04-06T12:11:50.928Z,5.77
2023-04-06T12:12:47.873Z,5.77
2023-04-06T12:13:44.520Z,5.59
2023-04-06T12:14:41.374Z,5.69
2023-04-06T12:15:38.274Z,4.81
2023-04-06T12:16:35.986Z,5.64
2023-04-06T12:17:32.796Z,6.11
2023-04-06T12:18:31.002Z,5.58
2023-04-06T12:19:27.909Z,5.20
2023-04-06T12:20:26.516Z,4.35
2023-04-06T12:21:24.265Z,4.07
2023-04-06T12:22:20.978Z,3.86
2023-04-06T12:23:17.655Z,4.59
2023-04-06T12:24:14.297Z,5.06
2023-04-06T12:25:11.409Z,5.42
2023-04-06T12:26:13.191Z,4.84
2023-04-06T12:27:12.003Z,5.42
2023-04-06T12:28:08.739Z,4.98
2023-04-06T12:29:08.435Z,5.32
2023-04-06T12:30:06.455Z,4.85
2023-04-06T12:31:03.213Z,4.88
2023-04-06T12:32:02.528Z,5.32
2023-04-06T12:32:59.514Z,4.33
2023-04-06T12:33:56.245Z,4.45
2023-04-06T12:34:55.726Z,4.30
2023-04-06T12:35:52.426Z,4.73